Time;durP1;ratioP1;P1;durP2;ratioP2;P2;SDS_P1;SDS_P2;PMS_P1;PMS_P2;Temp;Humidity;BMP_temperature;BMP_pressure;BME280_temperature;BME280_humidity;BME280_pressure;Samples;Min_cycle;Max_cycle;Signal;HPM_P1;HPM_P2
2021/07/14 00:00:22;;;;;;;19.57;16.37;;;;;;;20.94;90.38;98478.57;4097056;85;22296;-84
2021/07/14 00:06:25;;;;;;;17.27;15.18;;;;;;;20.90;90.88;98475.77;4048786;85;21112;-83
2021/07/14 00:12:29;;;;;;;20.50;15.90;;;;;;;20.84;91.32;98473.42;4032511;86;21064;-84
2021/07/14 00:24:49;;;;;;;26.45;15.60;;;;;;;20.77;91.37;98460.56;4102142;85;21047;-83
2021/07/14 00:30:54;;;;;;;21.97;17.32;;;;;;;20.84;91.95;98471.42;4186517;83;21072;-83
2021/07/14 00:36:53;;;;;;;19.45;17.00;;;;;;;20.73;91.35;98464.10;4194114;83;21041;-84
2021/07/14 00:42:54;;;;;;;24.55;17.40;;;;;;;20.62;91.69;98465.72;4182974;83;21066;-83
2021/07/14 00:48:59;;;;;;;19.55;17.30;;;;;;;20.53;91.76;98468.45;4165766;84;21093;-84
2021/07/14 00:55:00;;;;;;;25.35;19.23;;;;;;;20.51;92.04;98469.52;4166727;84;21033;-83
2021/07/14 01:01:03;;;;;;;29.82;16.80;;;;;;;20.42;92.03;98473.62;4180484;84;21032;-83
2021/07/14 01:07:39;;;;;;;21.37;16.85;;;;;;;20.48;92.86;98482.33;4195962;82;22483;-83
2021/07/14 01:13:49;;;;;;;26.77;15.95;;;;;;;20.48;92.43;98480.94;4178466;83;21579;-83
2021/07/14 01:20:31;;;;;;;17.17;14.25;;;;;;;20.42;92.66;98479.19;4189553;83;21049;-83
2021/07/14 01:27:06;;;;;;;17.90;15.65;;;;;;;20.42;92.72;98475.02;4206067;83;21992;-83
2021/07/14 01:33:10;;;;;;;22.42;15.88;;;;;;;20.35;92.39;98469.70;4200349;83;21585;-84
2021/07/14 01:39:15;;;;;;;21.07;15.72;;;;;;;20.22;92.82;98463.45;4204326;83;21039;-84
2021/07/14 01:45:17;;;;;;;17.73;15.83;;;;;;;20.14;92.78;98467.06;4188147;83;21100;-84
2021/07/14 01:51:19;;;;;;;21.27;15.95;;;;;;;20.07;92.92;98464.52;4160594;84;21058;-83
2021/07/14 01:57:22;;;;;;;20.80;15.58;;;;;;;19.99;92.95;98466.00;4187637;83;21106;-82
2021/07/14 02:09:36;;;;;;;19.05;15.98;;;;;;;19.92;93.26;98467.02;4148276;83;21097;-83
2021/07/14 02:15:40;;;;;;;18.07;13.65;;;;;;;19.84;93.24;98474.66;4193096;83;21097;-83
2021/07/14 02:21:42;;;;;;;19.92;16.07;;;;;;;19.91;93.88;98475.80;4193382;83;21654;-83
2021/07/14 02:27:44;;;;;;;22.20;16.57;;;;;;;19.81;93.45;98475.56;4170359;83;21045;-83
2021/07/14 02:33:46;;;;;;;18.30;16.05;;;;;;;19.79;93.78;98473.84;4177938;83;21136;-83
2021/07/14 02:39:47;;;;;;;21.20;14.80;;;;;;;19.83;94.20;98479.44;4200486;84;20980;-83
2021/07/14 02:45:50;;;;;;;23.55;14.50;;;;;;;19.85;94.45;98481.16;4188480;82;22255;-82
2021/07/14 02:51:52;;;;;;;20.43;15.75;;;;;;;19.94;94.34;98480.45;4060393;85;21290;-83
2021/07/14 02:57:57;;;;;;;18.98;16.50;;;;;;;19.99;94.29;98484.05;4073566;85;21121;-83
2021/07/14 03:03:59;;;;;;;20.12;17.65;;;;;;;19.85;94.13;98480.38;4139988;83;21172;-83
2021/07/14 03:10:02;;;;;;;18.60;16.42;;;;;;;19.74;94.21;98482.13;4162216;84;21093;-84
2021/07/14 03:16:05;;;;;;;25.27;17.40;;;;;;;19.63;94.29;98470.61;4149473;84;21026;-84
2021/07/14 03:22:07;;;;;;;22.15;16.27;;;;;;;19.61;94.48;98470.87;4147120;84;21060;-83
2021/07/14 03:28:09;;;;;;;27.62;17.52;;;;;;;19.59;94.91;98467.16;4144995;83;21574;-83
2021/07/14 03:34:11;;;;;;;24.30;15.85;;;;;;;19.52;94.54;98463.23;4166186;83;21028;-83
2021/07/14 03:40:15;;;;;;;20.70;17.92;;;;;;;19.45;94.93;98459.30;4169467;83;21087;-82
2021/07/14 03:46:17;;;;;;;22.17;17.92;;;;;;;19.47;94.94;98453.30;4152053;83;21024;-83
2021/07/14 03:52:21;;;;;;;21.80;16.12;;;;;;;19.43;95.05;98455.42;4152044;84;21031;-83
2021/07/14 03:58:24;;;;;;;26.20;17.07;;;;;;;19.51;96.09;98460.28;4146013;84;22255;-84
2021/07/14 04:04:26;;;;;;;22.67;16.77;;;;;;;19.69;96.10;98465.25;4134455;83;21783;-83
2021/07/14 04:10:27;;;;;;;22.32;18.95;;;;;;;19.76;95.69;98456.69;4123885;85;21611;-84
2021/07/14 04:16:29;;;;;;;24.00;17.75;;;;;;;19.82;95.84;98465.39;4133811;84;21028;-83
2021/07/14 04:22:30;;;;;;;20.82;17.25;;;;;;;19.95;96.22;98455.63;4143435;84;21047;-83
2021/07/14 04:28:33;;;;;;;21.25;15.23;;;;;;;20.08;95.83;98456.34;4167351;82;21029;-83
2021/07/14 04:34:35;;;;;;;23.65;15.45;;;;;;;20.20;96.16;98467.43;4204145;82;21600;-83
2021/07/14 04:40:37;;;;;;;18.25;16.30;;;;;;;20.38;96.07;98464.02;4169251;84;21504;-83
2021/07/14 04:46:39;;;;;;;21.77;16.67;;;;;;;20.47;95.82;98461.93;4177918;84;21765;-83
2021/07/14 04:52:41;;;;;;;27.05;16.00;;;;;;;20.54;96.10;98464.44;4163423;84;22272;-84
2021/07/14 04:58:45;;;;;;;22.30;16.77;;;;;;;20.72;96.00;98461.77;4137544;84;21120;-83
2021/07/14 05:04:46;;;;;;;21.85;16.25;;;;;;;20.84;95.88;98461.69;4149663;84;21610;-82
2021/07/14 05:10:48;;;;;;;26.02;18.30;;;;;;;21.02;95.70;98470.14;4176843;84;22644;-84
2021/07/14 05:16:49;;;;;;;22.45;17.32;;;;;;;21.13;95.65;98486.41;4162828;83;21610;-84
2021/07/14 05:22:51;;;;;;;33.40;19.37;;;;;;;21.31;95.87;98485.87;4131255;83;21649;-84
2021/07/14 05:28:52;;;;;;;24.72;18.98;;;;;;;21.54;95.46;98466.45;4147272;82;21096;-84
2021/07/14 05:34:53;;;;;;;28.40;18.87;;;;;;;21.79;95.40;98468.23;4141281;84;21032;-83
2021/07/14 05:40:56;;;;;;;27.10;17.45;;;;;;;22.10;95.51;98461.94;4035633;87;21078;-84
2021/07/14 05:46:57;;;;;;;22.15;17.85;;;;;;;22.34;95.42;98446.89;4116976;84;21132;-83
2021/07/14 05:52:58;;;;;;;21.20;17.10;;;;;;;22.53;95.17;98445.66;4106551;84;21045;-84
2021/07/14 05:59:00;;;;;;;19.73;17.62;;;;;;;22.72;95.02;98433.83;4040255;85;21077;-84
2021/07/14 06:05:01;;;;;;;24.23;16.75;;;;;;;22.99;95.24;98418.40;4115294;84;21053;-84
2021/07/14 06:11:02;;;;;;;22.65;16.50;;;;;;;23.28;94.96;98419.98;4049322;84;224587;-84
2021/07/14 06:17:04;;;;;;;18.48;15.93;;;;;;;23.57;94.45;98413.77;4156761;82;30315;-84
2021/07/14 06:23:05;;;;;;;25.43;16.62;;;;;;;23.88;93.58;98420.51;4204695;81;30906;-83
2021/07/14 06:29:08;;;;;;;23.32;16.12;;;;;;;24.17;93.12;98421.23;4204515;83;21042;-84
2021/07/14 06:35:12;;;;;;;17.50;15.23;;;;;;;24.28;92.45;98415.24;4196107;83;21657;-83
2021/07/14 06:41:17;;;;;;;18.32;15.08;;;;;;;24.47;92.04;98429.82;4181899;84;21623;-84
2021/07/14 06:47:17;;;;;;;18.60;14.20;;;;;;;24.68;91.73;98443.32;4181659;84;21063;-84
2021/07/14 06:53:18;;;;;;;19.52;14.98;;;;;;;24.88;91.70;98456.00;4175591;84;21039;-84
2021/07/14 06:59:19;;;;;;;19.48;15.35;;;;;;;25.05;91.36;98462.03;4176789;84;21059;-84
2021/07/14 07:05:20;;;;;;;17.70;15.03;;;;;;;25.36;91.03;98461.51;4179651;84;21134;-83
2021/07/14 07:11:22;;;;;;;16.02;14.20;;;;;;;25.72;90.04;98449.80;4177310;84;21015;-85
2021/07/14 07:17:23;;;;;;;15.38;13.70;;;;;;;26.16;89.30;98448.98;4195140;83;21065;-84
2021/07/14 07:23:25;;;;;;;19.40;14.07;;;;;;;26.59;87.83;98451.38;4311416;81;21142;-86
2021/07/14 07:29:27;;;;;;;20.92;13.75;;;;;;;26.97;86.92;98451.75;4312091;79;21325;-84
2021/07/14 07:35:28;;;;;;;23.77;13.10;;;;;;;27.35;86.16;98458.34;4328060;81;20984;-85
2021/07/14 07:41:29;;;;;;;14.93;12.68;;;;;;;27.72;84.82;98449.11;4324781;81;21098;-85
2021/07/14 07:47:31;;;;;;;18.65;12.73;;;;;;;28.11;84.14;98441.64;4320859;81;21058;-87
2021/07/14 07:53:33;;;;;;;15.23;12.55;;;;;;;28.38;82.43;98435.30;4323541;81;21516;-86
2021/07/14 07:59:35;;;;;;;15.85;13.00;;;;;;;28.83;81.73;98435.55;4323226;81;21019;-85
2021/07/14 08:05:36;;;;;;;18.87;12.23;;;;;;;29.22;80.30;98432.12;4320653;81;20999;-87
2021/07/14 08:11:38;;;;;;;21.65;12.50;;;;;;;29.48;78.74;98442.45;4323727;81;21072;-85
2021/07/14 08:17:40;;;;;;;16.17;11.33;;;;;;;29.73;77.90;98465.37;4324545;81;21015;-85
2021/07/14 08:23:41;;;;;;;17.77;11.50;;;;;;;29.72;75.28;98461.66;4324517;81;21042;-85
2021/07/14 08:29:43;;;;;;;15.68;11.68;;;;;;;29.78;74.24;98463.81;4327854;80;21594;-86
2021/07/14 08:35:45;;;;;;;14.50;11.38;;;;;;;29.87;73.47;98465.71;4374620;80;21157;-86
2021/07/14 08:41:49;;;;;;;17.98;11.80;;;;;;;30.04;72.32;98475.52;4369399;80;21054;-85
2021/07/14 08:47:51;;;;;;;17.23;11.33;;;;;;;30.14;71.83;98476.77;4383090;80;21109;-85
2021/07/14 08:53:53;;;;;;;18.67;12.28;;;;;;;30.09;71.11;98473.33;4374982;80;21605;-84
2021/07/14 08:59:54;;;;;;;15.85;12.47;;;;;;;29.92;70.93;98471.20;4388555;80;21031;-85
2021/07/14 09:05:55;;;;;;;14.33;11.70;;;;;;;29.72;70.89;98489.23;4373305;80;21071;-85
2021/07/14 09:11:59;;;;;;;14.90;11.83;;;;;;;29.63;70.07;98486.63;4384821;80;21034;-85
2021/07/14 09:18:01;;;;;;;15.45;11.15;;;;;;;29.62;69.82;98495.61;4403132;80;21023;-85
2021/07/14 09:24:25;;;;;;;12.55;11.25;;;;;;;29.53;69.33;98501.53;4396793;80;20965;-84
2021/07/14 09:30:27;;;;;;;18.20;12.40;;;;;;;29.44;69.17;98517.30;4400132;79;21565;-85
2021/07/14 09:36:36;;;;;;;14.83;12.28;;;;;;;29.31;69.42;98523.46;4431235;79;21042;-84
2021/07/14 09:42:37;;;;;;;16.97;12.60;;;;;;;29.30;69.88;98515.52;4416600;79;21401;-85
2021/07/14 09:48:46;;;;;;;18.15;13.48;;;;;;;29.33;70.21;98521.53;4412321;79;23120;-85
2021/07/14 09:54:48;;;;;;;16.90;12.58;;;;;;;29.39;70.64;98531.54;4430540;79;21026;-84
2021/07/14 10:01:02;;;;;;;21.48;13.80;;;;;;;29.43;70.52;98533.45;4415262;79;21069;-84
2021/07/14 10:07:18;;;;;;;19.60;13.28;;;;;;;29.61;71.04;98532.16;4272946;81;21050;-85
2021/07/14 10:13:21;;;;;;;15.23;12.78;;;;;;;29.72;71.24;98524.49;4291175;81;21096;-86
2021/07/14 10:19:26;;;;;;;16.65;12.53;;;;;;;30.19;69.92;98523.34;4339459;81;21172;-85
2021/07/14 10:25:28;;;;;;;27.07;13.83;;;;;;;30.53;68.74;98529.63;4275963;81;21050;-86
2021/07/14 10:31:31;;;;;;;21.00;12.78;;;;;;;30.77;68.57;98517.72;4308907;80;21543;-84
2021/07/14 10:37:33;;;;;;;18.45;13.50;;;;;;;31.15;67.67;98507.55;4302340;82;21004;-85
2021/07/14 10:43:34;;;;;;;21.10;12.68;;;;;;;31.51;66.94;98515.40;4314098;81;21020;-86
2021/07/14 10:49:38;;;;;;;17.55;12.75;;;;;;;31.88;66.34;98501.42;4276602;78;27350;-85
2021/07/14 10:55:42;;;;;;;18.75;12.15;;;;;;;32.15;65.42;98502.41;4211144;83;21032;-85
2021/07/14 11:01:48;;;;;;;18.10;11.68;;;;;;;32.09;64.47;98499.63;4284048;80;21055;-85
2021/07/14 11:07:49;;;;;;;22.45;12.40;;;;;;;32.10;64.15;98501.17;4299041;82;20983;-84
2021/07/14 11:14:14;;;;;;;19.50;11.18;;;;;;;32.36;63.65;98497.75;4291936;81;21073;-84
2021/07/14 11:20:15;;;;;;;14.30;10.65;;;;;;;32.52;62.59;98495.38;4294062;82;21066;-85
2021/07/14 11:26:20;;;;;;;15.13;11.55;;;;;;;32.48;61.93;98502.02;4292213;82;21464;-85
2021/07/14 11:32:39;;;;;;;18.92;12.03;;;;;;;32.19;61.24;98502.85;4195530;83;21642;-85
2021/07/14 11:38:53;;;;;;;16.07;11.63;;;;;;;32.30;61.37;98499.25;4343054;81;20998;-85
2021/07/14 11:45:57;;;;;;;17.10;11.78;;;;;;;32.91;61.30;98505.55;4335678;81;21584;-84
2021/07/14 11:51:53;;;;;;;;;;;;;;;;;;;;;
2021/07/14 11:57:53;;;;;;;21.33;12.50;;;;;;;33.82;60.06;98508.68;4229529;81;21039;-85
2021/07/14 12:04:06;;;;;;;17.77;11.97;;;;;;;33.97;60.39;98508.92;4346531;81;21028;-85
2021/07/14 12:10:18;;;;;;;20.62;13.50;;;;;;;33.87;60.14;98504.20;4352821;81;21035;-85
2021/07/14 12:16:30;;;;;;;19.23;12.80;;;;;;;33.64;59.85;98498.83;4338643;81;22287;-86
2021/07/14 12:22:35;;;;;;;15.72;13.10;;;;;;;33.46;59.81;98486.24;4345276;81;21027;-85
2021/07/14 12:28:36;;;;;;;16.90;13.63;;;;;;;33.25;59.49;98501.65;4348318;81;21013;-85
2021/07/14 12:34:37;;;;;;;24.82;13.60;;;;;;;32.87;59.28;98495.15;4313899;81;21774;-86
2021/07/14 12:40:46;;;;;;;18.12;14.28;;;;;;;32.61;58.86;98483.66;4299591;81;21080;-86
2021/07/14 12:46:49;;;;;;;18.75;12.85;;;;;;;32.59;58.44;98482.03;4302569;81;20991;-85
2021/07/14 12:52:57;;;;;;;20.65;13.50;;;;;;;32.49;58.31;98482.29;4308412;81;21753;-85
2021/07/14 12:59:04;;;;;;;17.80;13.05;;;;;;;32.38;58.27;98485.27;4302704;81;21103;-86
2021/07/14 13:05:07;;;;;;;24.02;14.78;;;;;;;32.29;58.72;98485.63;4218326;83;21627;-85
2021/07/14 13:11:09;;;;;;;17.10;12.85;;;;;;;32.02;58.63;98490.96;4244730;83;21565;-84
2021/07/14 13:17:13;;;;;;;16.67;13.03;;;;;;;31.77;58.29;98472.56;4209744;83;21089;-85
2021/07/14 13:23:22;;;;;;;17.80;13.53;;;;;;;31.91;58.11;98463.56;4176497;84;21734;-85
2021/07/14 13:29:29;;;;;;;22.10;13.18;;;;;;;31.96;58.09;98445.75;4186909;84;20985;-84
2021/07/14 13:35:37;;;;;;;18.10;13.50;;;;;;;31.92;58.22;98442.44;4198481;84;21045;-86
2021/07/14 13:41:38;;;;;;;15.95;13.13;;;;;;;31.95;59.02;98443.56;4291748;82;21073;-85
2021/07/14 13:47:40;;;;;;;14.10;12.70;;;;;;;31.96;59.37;98442.25;4293838;82;21582;-85
2021/07/14 13:53:41;;;;;;;13.90;12.30;;;;;;;31.92;59.38;98433.30;4296356;82;21606;-85
2021/07/14 13:59:49;;;;;;;14.18;12.45;;;;;;;31.76;59.05;98442.72;4299941;80;21569;-85
2021/07/14 14:06:07;;;;;;;16.40;12.88;;;;;;;31.52;58.92;98437.08;4301146;82;21644;-85
2021/07/14 14:12:18;;;;;;;15.50;11.65;;;;;;;31.43;58.46;98431.00;4294962;82;21569;-86
2021/07/14 14:18:19;;;;;;;16.57;11.50;;;;;;;31.44;58.13;98409.91;4301001;82;21014;-85
2021/07/14 14:24:21;;;;;;;13.72;12.28;;;;;;;31.47;57.63;98403.95;4283916;82;21062;-85
2021/07/14 14:30:28;;;;;;;20.43;12.85;;;;;;;31.34;56.88;98393.93;4304508;82;21106;-85
2021/07/14 14:36:31;;;;;;;20.88;12.63;;;;;;;31.22;56.93;98416.52;4185539;82;21069;-85
2021/07/14 14:42:32;;;;;;;12.65;11.35;;;;;;;31.09;57.28;98418.45;4193125;83;20990;-85
2021/07/14 14:48:35;;;;;;;19.92;12.82;;;;;;;30.91;57.64;98417.70;4189058;83;21053;-85
2021/07/14 14:54:36;;;;;;;14.55;11.10;;;;;;;30.71;57.78;98406.15;4275951;82;21031;-86
2021/07/14 15:00:41;;;;;;;19.87;12.37;;;;;;;30.57;58.18;98426.27;4155500;83;21045;-86
2021/07/14 15:06:41;;;;;;;13.72;11.18;;;;;;;30.25;58.79;98451.34;4264252;82;21035;-84
2021/07/14 15:12:43;;;;;;;14.03;10.45;;;;;;;29.93;58.95;98437.49;4261033;82;21558;-85
2021/07/14 15:18:46;;;;;;;15.72;11.20;;;;;;;29.71;58.82;98402.30;4171510;84;21537;-84
2021/07/14 15:24:52;;;;;;;21.57;17.00;;;;;;;29.57;58.99;98395.63;4123185;85;21138;-86
2021/07/14 15:30:53;;;;;;;25.30;20.57;;;;;;;29.36;60.43;98406.33;4117982;85;21484;-84
2021/07/14 15:36:55;;;;;;;26.73;19.17;;;;;;;29.17;62.00;98415.20;4162552;83;21588;-84
2021/07/14 15:42:56;;;;;;;23.98;18.17;;;;;;;28.74;63.41;98394.94;4142856;84;21067;-84
2021/07/14 15:48:58;;;;;;;20.72;16.55;;;;;;;28.38;65.03;98384.01;4187985;83;21092;-86
2021/07/14 15:55:01;;;;;;;17.98;15.70;;;;;;;28.05;65.76;98393.77;4191093;82;21589;-82
2021/07/14 16:01:08;;;;;;;20.97;16.27;;;;;;;27.70;66.65;98389.78;4313352;80;21015;-83
2021/07/14 16:07:13;;;;;;;18.92;16.52;;;;;;;27.50;67.47;98373.86;4294018;80;21000;-83
2021/07/14 16:13:14;;;;;;;27.40;16.93;;;;;;;27.22;68.12;98348.99;4180529;83;21860;-84
2021/07/14 16:19:16;;;;;;;22.55;17.07;;;;;;;26.95;69.11;98334.91;4174814;83;21025;-84
2021/07/14 16:25:19;;;;;;;21.60;17.20;;;;;;;26.91;69.92;98316.13;4174830;83;21127;-84
2021/07/14 16:31:21;;;;;;;23.67;17.25;;;;;;;26.88;70.56;98305.91;4293957;81;21371;-85
2021/07/14 16:37:22;;;;;;;24.27;17.98;;;;;;;26.69;71.16;98289.30;4187472;84;21563;-84
2021/07/14 16:43:23;;;;;;;22.82;16.30;;;;;;;26.57;71.41;98272.23;4195210;84;21021;-82
2021/07/14 16:49:25;;;;;;;19.00;17.07;;;;;;;26.43;71.98;98331.30;4228662;83;21013;-84
2021/07/14 16:55:28;;;;;;;18.50;16.52;;;;;;;26.33;72.76;98373.44;4206963;83;21071;-86
2021/07/14 17:01:30;;;;;;;22.48;16.37;;;;;;;26.18;75.36;98405.14;4237387;83;21074;-83
2021/07/14 17:07:31;;;;;;;22.62;15.68;;;;;;;25.79;74.47;98368.84;4194816;84;21017;-84
2021/07/14 17:13:32;;;;;;;15.95;14.33;;;;;;;25.77;74.80;98403.63;4192987;84;20984;-84
2021/07/14 17:19:33;;;;;;;19.45;14.30;;;;;;;25.67;75.81;98423.86;4172081;84;21026;-83
2021/07/14 17:25:34;;;;;;;17.20;13.50;;;;;;;25.44;76.26;98431.21;4186735;84;21024;-83
2021/07/14 17:31:35;;;;;;;19.23;12.88;;;;;;;25.30;76.49;98420.79;4153768;85;21099;-84
2021/07/14 17:37:38;;;;;;;14.50;12.18;;;;;;;25.27;76.73;98427.38;4238623;83;21063;-83
2021/07/14 17:43:41;;;;;;;16.20;13.45;;;;;;;25.20;77.23;98453.61;4228815;83;21041;-83
2021/07/14 17:49:43;;;;;;;19.45;13.45;;;;;;;25.15;77.38;98471.85;4225904;83;21031;-83
2021/07/14 17:55:44;;;;;;;18.00;12.80;;;;;;;24.98;77.92;98472.20;4228047;83;20994;-84
2021/07/14 18:01:46;;;;;;;18.07;12.95;;;;;;;24.92;78.07;98475.55;4225700;83;21007;-83
2021/07/14 18:07:47;;;;;;;19.82;13.72;;;;;;;24.77;78.45;98470.59;4248573;83;21025;-83
2021/07/14 18:13:48;;;;;;;22.10;13.00;;;;;;;24.70;78.70;98485.60;4243487;83;20990;-84
2021/07/14 18:19:49;;;;;;;23.30;14.13;;;;;;;24.63;79.06;98509.86;4236573;83;21098;-83
2021/07/14 18:25:50;;;;;;;18.37;13.50;;;;;;;24.52;79.13;98519.44;4225030;83;21050;-84
2021/07/14 18:31:52;;;;;;;27.82;13.55;;;;;;;24.32;79.55;98531.89;4222689;83;21463;-83
2021/07/14 18:37:59;;;;;;;22.07;13.10;;;;;;;24.25;80.01;98543.45;4228980;83;20995;-82
2021/07/14 18:44:04;;;;;;;22.90;12.53;;;;;;;24.19;80.18;98545.98;4222550;83;21013;-83
2021/07/14 18:50:07;;;;;;;26.15;11.93;;;;;;;24.09;80.11;98567.64;4236903;83;20997;-83
2021/07/14 18:56:09;;;;;;;31.33;12.90;;;;;;;24.00;80.11;98574.69;4233730;83;21056;-83
2021/07/14 19:02:10;;;;;;;26.87;11.43;;;;;;;23.92;80.16;98578.27;4235036;83;21021;-83
2021/07/14 19:08:13;;;;;;;23.65;10.75;;;;;;;23.84;80.16;98579.24;4272750;82;21081;-83
2021/07/14 19:14:16;;;;;;;21.30;11.05;;;;;;;23.65;80.39;98593.78;4281978;82;21489;-84
2021/07/14 19:20:18;;;;;;;22.10;10.68;;;;;;;23.54;80.01;98576.76;4276489;81;21045;-83
2021/07/14 19:26:19;;;;;;;33.35;11.45;;;;;;;23.40;80.41;98562.82;4282602;82;21488;-83
2021/07/14 19:32:21;;;;;;;29.15;10.75;;;;;;;23.19;80.49;98572.17;4271844;82;21951;-83
2021/07/14 19:38:23;;;;;;;27.05;12.80;;;;;;;23.11;80.65;98569.55;4193663;83;21905;-83
2021/07/14 19:44:24;;;;;;;24.50;11.53;;;;;;;22.95;80.77;98557.33;4166138;84;21061;-84
2021/07/14 19:50:26;;;;;;;24.10;11.97;;;;;;;22.85;80.90;98552.38;4210696;83;22180;-83
2021/07/14 19:56:27;;;;;;;24.00;10.78;;;;;;;22.75;80.82;98535.52;4185010;84;21618;-83
2021/07/14 20:02:29;;;;;;;24.92;10.85;;;;;;;22.64;80.92;98551.95;4230223;83;21525;-83
2021/07/14 20:08:30;;;;;;;28.52;10.68;;;;;;;22.61;81.29;98568.84;4231076;83;21029;-83
2021/07/14 20:14:31;;;;;;;31.27;10.45;;;;;;;22.47;81.31;98579.98;4233156;83;21061;-83
2021/07/14 20:20:33;;;;;;;29.75;12.03;;;;;;;22.47;81.50;98588.34;4218244;82;21034;-82
2021/07/14 20:26:34;;;;;;;33.85;11.08;;;;;;;22.39;82.10;98637.91;4227554;83;22640;-83
2021/07/14 20:32:36;;;;;;;24.27;9.65;;;;;;;22.36;81.95;98672.30;4237759;82;21107;-82
2021/07/14 20:38:37;;;;;;;24.77;9.53;;;;;;;22.29;82.03;98634.93;4197868;83;21072;-84
2021/07/14 20:44:38;;;;;;;24.45;8.50;;;;;;;22.28;82.28;98629.20;4179594;84;21038;-82
2021/07/14 20:50:48;;;;;;;18.98;7.95;;;;;;;22.29;82.17;98618.20;4204695;82;21042;-83
2021/07/14 20:56:50;;;;;;;16.25;7.22;;;;;;;22.28;81.67;98618.05;4196096;82;21114;-83
2021/07/14 21:02:51;;;;;;;23.75;9.08;;;;;;;22.22;81.49;98616.51;4184646;84;21610;-82
2021/07/14 21:08:53;;;;;;;18.15;8.88;;;;;;;22.14;81.16;98593.55;4279055;82;21111;-83
2021/07/14 21:14:54;;;;;;;19.77;9.30;;;;;;;22.09;81.05;98570.46;4262635;82;21931;-82
2021/07/14 21:20:57;;;;;;;20.77;9.00;;;;;;;21.94;81.56;98536.08;4272579;81;21776;-82
2021/07/14 21:26:58;;;;;;;20.05;8.90;;;;;;;21.90;81.74;98538.22;4276984;82;21031;-82
2021/07/14 21:33:00;;;;;;;21.87;8.73;;;;;;;21.85;82.02;98547.96;4281664;79;21567;-83
2021/07/14 21:39:06;;;;;;;24.02;9.33;;;;;;;21.66;81.43;98534.58;4284853;82;21081;-83
2021/07/14 21:45:16;;;;;;;25.72;8.88;;;;;;;21.58;81.26;98531.16;4258862;82;21094;-83
2021/07/14 21:51:18;;;;;;;26.23;9.48;;;;;;;21.37;81.44;98525.03;4278652;81;21047;-84
2021/07/14 21:57:19;;;;;;;25.30;9.20;;;;;;;21.22;82.02;98534.55;4276106;82;22217;-82
2021/07/14 22:03:21;;;;;;;19.77;10.13;;;;;;;21.17;82.23;98529.57;4287265;82;21625;-83
2021/07/14 22:09:23;;;;;;;21.30;8.88;;;;;;;21.33;82.81;98551.61;4267809;82;21023;-82
2021/07/14 22:15:24;;;;;;;30.62;9.75;;;;;;;21.28;82.64;98546.64;4273803;81;21641;-82
2021/07/14 22:21:28;;;;;;;18.27;9.15;;;;;;;21.28;83.36;98545.88;4277460;82;20978;-83
2021/07/14 22:27:32;;;;;;;18.95;8.45;;;;;;;21.26;82.82;98548.34;4278680;82;21567;-83
2021/07/14 22:33:35;;;;;;;20.60;9.48;;;;;;;21.13;83.52;98559.56;4283697;79;21047;-83
2021/07/14 22:39:36;;;;;;;21.65;9.25;;;;;;;21.10;83.66;98575.78;4268983;82;21063;-83
2021/07/14 22:45:38;;;;;;;23.12;9.80;;;;;;;21.04;83.48;98598.47;4276168;82;21103;-82
2021/07/14 22:51:40;;;;;;;26.97;10.35;;;;;;;21.01;84.09;98634.77;4281379;81;21023;-82
2021/07/14 22:57:41;;;;;;;26.35;10.30;;;;;;;20.82;85.99;98757.63;4274297;82;21070;-83
2021/07/14 23:03:44;;;;;;;11.43;3.15;;;;;;;20.93;86.46;98860.20;4272212;82;21094;-85
2021/07/14 23:09:45;;;;;;;6.08;1.65;;;;;;;20.26;84.56;98775.36;4271792;82;21022;-82
2021/07/14 23:15:47;;;;;;;7.12;2.05;;;;;;;19.02;87.60;98704.58;4269997;82;21528;-85
2021/07/14 23:21:54;;;;;;;8.90;2.10;;;;;;;18.47;87.34;98765.22;4274552;82;21429;-84
2021/07/14 23:27:56;;;;;;;7.28;2.27;;;;;;;18.41;87.26;98773.09;4277341;81;21039;-83
2021/07/14 23:33:57;;;;;;;6.72;2.05;;;;;;;18.44;87.78;98727.28;4266479;79;21083;-85
2021/07/14 23:39:58;;;;;;;8.95;2.50;;;;;;;18.40;87.82;98707.17;4341431;81;21015;-86
2021/07/14 23:46:00;;;;;;;7.30;2.17;;;;;;;18.26;88.80;98653.46;4345033;81;21058;-84
2021/07/14 23:52:02;;;;;;;4.95;1.62;;;;;;;18.26;88.67;98573.74;4341186;81;21319;-84
2021/07/14 23:58:04;;;;;;;5.05;1.47;;;;;;;18.19;89.07;98577.47;4341002;81;21004;-84
